Time;durP1;ratioP1;P1;durP2;ratioP2;P2;SDS_P1;SDS_P2;PMS_P1;PMS_P2;Temp;Humidity;BMP_temperature;BMP_pressure;BME280_temperature;BME280_humidity;BME280_pressure;Samples;Min_cycle;Max_cycle;Signal;HPM_P1;HPM_P2
2022/09/14 00:01:35;;;;;;;3.15;2.88;;;18.20;99.90;;;;;;5076214;28;20213;-87
2022/09/14 00:04:06;;;;;;;2.60;2.40;;;18.20;99.90;;;;;;5076756;28;20225;-86
2022/09/14 00:06:35;;;;;;;3.80;3.50;;;18.20;99.90;;;;;;5076767;28;20296;-86
2022/09/14 00:09:06;;;;;;;3.42;3.13;;;18.20;99.90;;;;;;5075853;28;20232;-86
2022/09/14 00:11:36;;;;;;;2.97;2.65;;;18.10;99.90;;;;;;5076453;28;20215;-86
2022/09/14 00:14:05;;;;;;;4.88;3.53;;;18.10;99.90;;;;;;5072549;28;20213;-86
2022/09/14 00:16:38;;;;;;;2.53;2.40;;;18.10;99.90;;;;;;5073390;28;20219;-86
2022/09/14 00:19:13;;;;;;;3.42;3.13;;;18.10;99.90;;;;;;5072627;28;20233;-85
2022/09/14 00:21:41;;;;;;;2.90;2.70;;;18.20;99.90;;;;;;5073606;28;20216;-85
2022/09/14 00:24:11;;;;;;;2.80;2.60;;;18.20;99.90;;;;;;5072927;28;20263;-85
2022/09/14 00:26:39;;;;;;;3.42;3.13;;;18.20;99.90;;;;;;5073104;28;20216;-85
2022/09/14 00:29:08;;;;;;;2.88;2.67;;;18.20;99.90;;;;;;5072900;28;20233;-85
2022/09/14 00:31:39;;;;;;;3.28;2.95;;;18.20;99.90;;;;;;5073037;28;20217;-86
2022/09/14 00:34:11;;;;;;;4.65;3.42;;;18.20;99.90;;;;;;5074598;28;20213;-86
2022/09/14 00:36:41;;;;;;;3.88;3.55;;;18.20;99.90;;;;;;5074992;28;20203;-86
2022/09/14 00:39:10;;;;;;;4.45;4.10;;;18.20;99.90;;;;;;5074980;28;20231;-86
2022/09/14 00:41:40;;;;;;;4.85;4.45;;;18.20;99.90;;;;;;5074879;28;20216;-86
2022/09/14 00:44:47;;;;;;;4.95;3.67;;;18.20;99.90;;;;;;5074669;28;20221;-86
2022/09/14 00:47:17;;;;;;;5.18;3.88;;;18.20;99.90;;;;;;5074772;28;20216;-86
2022/09/14 00:49:46;;;;;;;9.63;4.00;;;18.20;99.90;;;;;;5074326;28;20274;-87
2022/09/14 00:52:18;;;;;;;3.42;3.13;;;18.10;99.90;;;;;;5074784;28;20205;-86
2022/09/14 00:54:49;;;;;;;3.78;3.47;;;18.10;99.90;;;;;;5074403;28;20196;-86
2022/09/14 00:57:18;;;;;;;3.67;3.38;;;18.00;99.90;;;;;;5074501;28;20208;-86
2022/09/14 00:59:49;;;;;;;3.85;3.47;;;18.00;99.90;;;;;;5074590;28;20225;-85
2022/09/14 01:02:20;;;;;;;3.78;3.47;;;18.00;99.90;;;;;;5074789;28;20216;-86
2022/09/14 01:04:50;;;;;;;4.03;3.60;;;17.90;99.90;;;;;;5074154;28;20221;-86
2022/09/14 01:07:32;;;;;;;3.45;3.15;;;17.80;99.90;;;;;;5074406;28;20216;-86
2022/09/14 01:10:11;;;;;;;4.03;3.53;;;17.80;99.90;;;;;;5073878;28;20233;-87
2022/09/14 01:12:47;;;;;;;10.23;3.88;;;17.80;99.90;;;;;;5074791;28;20208;-87
2022/09/14 01:15:21;;;;;;;3.83;3.53;;;17.70;99.90;;;;;;5074235;28;20215;-87
2022/09/14 01:17:58;;;;;;;4.50;4.05;;;17.70;99.90;;;;;;5074018;28;20211;-85
2022/09/14 01:20:30;;;;;;;7.22;4.13;;;17.70;99.90;;;;;;5073817;28;20201;-86
2022/09/14 01:23:09;;;;;;;3.60;3.30;;;17.70;99.90;;;;;;5074518;28;20212;-86
2022/09/14 01:25:55;;;;;;;4.03;3.63;;;17.60;99.90;;;;;;5072756;28;20201;-86
2022/09/14 01:28:31;;;;;;;3.53;3.22;;;17.60;99.90;;;;;;5073517;28;20243;-86
2022/09/14 01:31:03;;;;;;;4.25;3.88;;;17.60;99.90;;;;;;5074161;28;20205;-86
2022/09/14 01:33:37;;;;;;;3.72;3.42;;;17.60;99.90;;;;;;5073870;28;20201;-86
2022/09/14 01:36:07;;;;;;;3.92;3.63;;;17.60;99.90;;;;;;5074264;28;20197;-85
2022/09/14 01:38:40;;;;;;;3.13;2.92;;;17.60;99.90;;;;;;5073311;28;20304;-86
2022/09/14 01:41:11;;;;;;;3.45;3.15;;;17.60;99.90;;;;;;5073794;28;20201;-86
2022/09/14 01:43:44;;;;;;;3.03;2.83;;;17.60;99.90;;;;;;5073712;28;20225;-86
2022/09/14 01:46:16;;;;;;;9.23;3.03;;;17.60;99.90;;;;;;5073697;28;20198;-86
2022/09/14 01:48:49;;;;;;;3.30;3.00;;;17.60;99.90;;;;;;5073110;28;20229;-86
2022/09/14 01:51:25;;;;;;;3.92;3.63;;;17.70;99.90;;;;;;5073777;28;20208;-86
2022/09/14 01:54:00;;;;;;;3.17;2.97;;;17.70;99.90;;;;;;5073650;28;20212;-86
2022/09/14 01:56:34;;;;;;;4.78;3.78;;;17.70;99.90;;;;;;5073461;28;20208;-86
2022/09/14 01:59:07;;;;;;;3.15;2.85;;;17.70;99.90;;;;;;5073256;28;20225;-86
2022/09/14 02:01:39;;;;;;;3.05;2.78;;;17.70;99.90;;;;;;5073699;28;20213;-86
2022/09/14 02:04:14;;;;;;;4.28;3.88;;;17.70;99.90;;;;;;5073154;28;20285;-86
2022/09/14 02:06:45;;;;;;;2.95;2.75;;;17.70;99.90;;;;;;5073524;28;20243;-86
2022/09/14 02:09:16;;;;;;;3.20;2.90;;;17.60;99.90;;;;;;5073123;28;20229;-85
2022/09/14 02:11:45;;;;;;;3.38;3.08;;;17.70;99.90;;;;;;5073631;28;20205;-87
2022/09/14 02:14:15;;;;;;;3.17;2.88;;;17.60;99.90;;;;;;5073197;28;20201;-86
2022/09/14 02:16:45;;;;;;;3.17;2.97;;;17.70;99.90;;;;;;5073212;28;20213;-86
2022/09/14 02:19:13;;;;;;;3.95;3.03;;;17.70;99.90;;;;;;5073050;28;20315;-87
2022/09/14 02:21:42;;;;;;;3.67;3.10;;;17.70;99.90;;;;;;5073077;28;20202;-86
2022/09/14 02:24:14;;;;;;;2.80;2.60;;;17.70;99.90;;;;;;5072721;28;20217;-85
2022/09/14 02:26:43;;;;;;;2.47;2.35;;;17.70;99.90;;;;;;5073099;28;20207;-85
2022/09/14 02:29:11;;;;;;;2.92;2.70;;;17.70;99.90;;;;;;5072360;28;20243;-85
2022/09/14 02:31:53;;;;;;;3.13;2.92;;;17.70;99.90;;;;;;5073447;28;20212;-85
2022/09/14 02:34:32;;;;;;;3.35;3.05;;;17.70;99.90;;;;;;5073062;28;20201;-85
2022/09/14 02:37:07;;;;;;;2.92;2.60;;;17.70;99.90;;;;;;5072667;28;20212;-86
2022/09/14 02:39:45;;;;;;;3.78;3.38;;;17.70;99.90;;;;;;5072460;28;20228;-85
2022/09/14 02:42:23;;;;;;;3.03;2.83;;;17.70;99.90;;;;;;5072649;28;20204;-85
2022/09/14 02:45:01;;;;;;;3.45;2.92;;;17.70;99.90;;;;;;5072572;28;20220;-86
2022/09/14 02:47:39;;;;;;;4.07;3.13;;;17.70;99.90;;;;;;5072771;28;20240;-86
2022/09/14 02:50:19;;;;;;;3.08;2.80;;;17.70;99.90;;;;;;5072327;28;20212;-86
2022/09/14 02:52:52;;;;;;;3.53;2.88;;;17.70;99.90;;;;;;5072553;28;20204;-86
2022/09/14 02:55:24;;;;;;;3.08;2.78;;;17.70;99.90;;;;;;5072338;28;20209;-86
2022/09/14 02:58:03;;;;;;;2.50;2.30;;;17.70;99.90;;;;;;5072467;28;20189;-85
2022/09/14 03:00:35;;;;;;;3.03;2.70;;;17.60;99.90;;;;;;5072320;28;20205;-85
2022/09/14 03:03:06;;;;;;;2.17;1.98;;;17.60;99.90;;;;;;5072555;28;20205;-87
2022/09/14 03:05:36;;;;;;;3.25;2.92;;;17.60;99.90;;;;;;5072591;28;20217;-85
2022/09/14 03:08:05;;;;;;;2.60;2.40;;;17.60;99.90;;;;;;5072071;28;20228;-86
2022/09/14 03:10:34;;;;;;;4.78;2.15;;;17.60;99.90;;;;;;5072140;28;20260;-85
2022/09/14 03:13:02;;;;;;;2.80;2.60;;;17.60;99.90;;;;;;5072614;28;20217;-85
2022/09/14 03:15:31;;;;;;;3.10;2.80;;;17.60;99.90;;;;;;5072225;28;20205;-85
2022/09/14 03:17:59;;;;;;;4.95;3.15;;;17.60;99.90;;;;;;5072276;28;20229;-86
2022/09/14 03:20:32;;;;;;;2.85;2.65;;;17.60;99.90;;;;;;5072001;28;20205;-85
2022/09/14 03:23:01;;;;;;;3.53;3.03;;;17.60;99.90;;;;;;5072391;28;20213;-86
2022/09/14 03:25:30;;;;;;;3.30;2.97;;;17.60;99.90;;;;;;5072404;28;20224;-85
2022/09/14 03:27:59;;;;;;;3.63;3.00;;;17.60;99.90;;;;;;5072213;28;20231;-85
2022/09/14 03:30:28;;;;;;;3.83;3.53;;;17.60;99.90;;;;;;5072364;28;20205;-85
2022/09/14 03:32:57;;;;;;;4.10;3.65;;;17.60;99.90;;;;;;5071945;28;20209;-87
2022/09/14 03:35:30;;;;;;;3.38;3.08;;;17.60;99.90;;;;;;5072708;28;20200;-85
2022/09/14 03:37:59;;;;;;;4.13;3.83;;;17.60;99.90;;;;;;5072432;28;20224;-85
2022/09/14 03:40:28;;;;;;;3.50;3.22;;;17.60;99.90;;;;;;5072205;28;20209;-85
2022/09/14 03:42:56;;;;;;;3.33;3.13;;;17.50;99.90;;;;;;5072568;28;20219;-86
2022/09/14 03:45:24;;;;;;;3.50;3.20;;;17.50;99.90;;;;;;5071646;28;20225;-87
2022/09/14 03:47:52;;;;;;;3.17;2.97;;;17.50;99.90;;;;;;5073281;28;20208;-86
2022/09/14 03:50:22;;;;;;;3.75;3.45;;;17.50;99.90;;;;;;5075437;28;20213;-86
2022/09/14 03:52:51;;;;;;;3.38;3.17;;;17.50;99.90;;;;;;5076166;28;20205;-85
2022/09/14 03:55:20;;;;;;;6.15;4.13;;;17.50;99.90;;;;;;5075696;28;20226;-86
2022/09/14 03:57:49;;;;;;;3.88;3.50;;;17.60;99.90;;;;;;5075276;28;20215;-85
2022/09/14 04:00:17;;;;;;;5.13;4.15;;;17.60;99.90;;;;;;5075247;28;20209;-85
2022/09/14 04:02:46;;;;;;;4.10;3.70;;;17.60;99.90;;;;;;5075417;28;20205;-86
2022/09/14 04:05:14;;;;;;;10.55;3.88;;;17.60;99.90;;;;;;5075452;28;20220;-87
2022/09/14 04:07:48;;;;;;;3.10;2.90;;;17.60;99.90;;;;;;5075585;28;20211;-85
2022/09/14 04:10:18;;;;;;;3.25;2.97;;;17.60;99.90;;;;;;5075151;28;20213;-86
2022/09/14 04:12:46;;;;;;;4.85;3.63;;;17.60;99.90;;;;;;5075169;28;20209;-86
2022/09/14 04:15:15;;;;;;;2.95;2.60;;;17.70;99.90;;;;;;5075634;28;20205;-87
2022/09/14 04:17:43;;;;;;;3.53;3.22;;;17.70;99.90;;;;;;5075264;28;20213;-85
2022/09/14 04:20:11;;;;;;;6.03;2.63;;;17.70;99.90;;;;;;5075340;28;20334;-86
2022/09/14 04:22:40;;;;;;;2.97;2.78;;;17.80;99.90;;;;;;5075165;28;20239;-86
2022/09/14 04:25:08;;;;;;;3.00;2.70;;;17.70;99.90;;;;;;5074955;28;20220;-86
2022/09/14 04:27:39;;;;;;;3.03;2.83;;;17.70;99.90;;;;;;5075111;28;20216;-86
2022/09/14 04:30:08;;;;;;;2.85;2.50;;;17.70;99.90;;;;;;5074900;28;20205;-85
2022/09/14 04:32:36;;;;;;;2.53;2.33;;;17.70;99.90;;;;;;5075233;28;20203;-86
2022/09/14 04:35:05;;;;;;;3.50;2.72;;;17.70;99.90;;;;;;5074992;28;20205;-85
2022/09/14 04:37:33;;;;;;;2.55;2.25;;;17.70;99.90;;;;;;5074936;28;20201;-85
2022/09/14 04:40:01;;;;;;;4.20;2.85;;;17.60;99.90;;;;;;5074742;28;20233;-87
2022/09/14 04:42:30;;;;;;;2.95;2.75;;;17.60;99.90;;;;;;5074741;28;20231;-86
2022/09/14 04:45:04;;;;;;;3.33;3.03;;;17.50;99.90;;;;;;5075374;28;20208;-85
2022/09/14 04:47:32;;;;;;;22.42;3.65;;;17.50;99.90;;;;;;5074902;28;20213;-85
2022/09/14 04:50:00;;;;;;;3.67;3.38;;;17.50;99.90;;;;;;5074186;28;20225;-86
2022/09/14 04:52:29;;;;;;;3.28;2.90;;;17.50;99.90;;;;;;5074888;28;20205;-86
2022/09/14 04:54:57;;;;;;;14.15;4.07;;;17.50;99.90;;;;;;5074647;28;20339;-86
2022/09/14 04:57:25;;;;;;;3.33;3.03;;;17.50;99.90;;;;;;5074541;28;20215;-87
2022/09/14 04:59:54;;;;;;;3.65;3.35;;;17.50;99.90;;;;;;5073834;28;20240;-86
2022/09/14 05:02:25;;;;;;;3.75;3.42;;;17.50;99.90;;;;;;5074483;28;20216;-87
2022/09/14 05:04:54;;;;;;;3.78;3.47;;;17.50;99.90;;;;;;5074589;28;20278;-88
2022/09/14 05:07:22;;;;;;;3.55;3.22;;;17.50;99.90;;;;;;5074728;28;20212;-86
2022/09/14 05:09:50;;;;;;;4.55;3.35;;;17.60;99.90;;;;;;5074400;28;20232;-86
2022/09/14 05:12:18;;;;;;;3.88;3.47;;;17.50;99.90;;;;;;5074184;28;20202;-87
2022/09/14 05:14:47;;;;;;;2.85;2.65;;;17.60;99.90;;;;;;5074285;28;20209;-86
2022/09/14 05:17:15;;;;;;;4.95;3.53;;;17.60;99.90;;;;;;5074104;28;20200;-86
2022/09/14 05:19:45;;;;;;;4.22;3.83;;;17.60;99.90;;;;;;5073866;28;20228;-86
2022/09/14 05:22:14;;;;;;;4.55;3.78;;;17.60;99.90;;;;;;5074203;28;20211;-85
2022/09/14 05:24:42;;;;;;;11.23;3.90;;;17.70;99.90;;;;;;5074077;28;20201;-86
2022/09/14 05:27:10;;;;;;;3.80;3.40;;;17.70;99.90;;;;;;5073956;28;20225;-87
2022/09/14 05:29:39;;;;;;;4.63;3.50;;;17.70;99.90;;;;;;5073190;28;20229;-87
2022/09/14 05:32:07;;;;;;;3.75;3.33;;;17.70;99.90;;;;;;5074166;28;20205;-87
2022/09/14 05:34:36;;;;;;;3.03;2.83;;;17.70;99.90;;;;;;5073918;28;20205;-87
2022/09/14 05:37:05;;;;;;;3.58;3.30;;;17.70;99.90;;;;;;5073828;28;20209;-86
2022/09/14 05:39:34;;;;;;;3.95;3.55;;;17.70;99.90;;;;;;5073321;28;20229;-85
2022/09/14 05:42:02;;;;;;;3.72;3.42;;;17.70;99.90;;;;;;5073761;28;20212;-87
2022/09/14 05:44:30;;;;;;;3.65;2.88;;;17.70;99.90;;;;;;5073609;28;20208;-86
2022/09/14 05:46:58;;;;;;;2.65;2.17;;;17.70;99.90;;;;;;5073520;28;20243;-87
2022/09/14 05:49:27;;;;;;;4.75;3.28;;;17.60;99.90;;;;;;5072785;28;20225;-86
2022/09/14 05:51:55;;;;;;;2.75;2.55;;;17.50;99.90;;;;;;5073686;28;20205;-86
2022/09/14 05:54:24;;;;;;;3.20;2.65;;;17.50;99.90;;;;;;5073438;28;20228;-85
2022/09/14 05:56:53;;;;;;;3.33;3.03;;;17.40;99.90;;;;;;5073256;28;20205;-85
2022/09/14 05:59:21;;;;;;;3.00;2.70;;;17.40;99.90;;;;;;5073308;28;20228;-85
2022/09/14 06:01:49;;;;;;;5.20;2.70;;;17.40;99.90;;;;;;5073312;28;20212;-85
2022/09/14 06:04:17;;;;;;;2.85;2.63;;;17.40;99.90;;;;;;5073562;28;20208;-85
2022/09/14 06:06:46;;;;;;;3.28;2.97;;;17.50;99.90;;;;;;5073375;28;20228;-85
2022/09/14 06:09:36;;;;;;;2.67;2.47;;;17.50;99.90;;;;;;5073234;28;20225;-86
2022/09/14 06:12:04;;;;;;;2.78;2.58;;;17.60;99.90;;;;;;5072757;28;20209;-87
2022/09/14 06:14:32;;;;;;;2.20;2.00;;;17.60;99.90;;;;;;5073360;28;20205;-87
2022/09/14 06:17:01;;;;;;;2.78;2.30;;;17.70;99.90;;;;;;5073120;28;20204;-88
2022/09/14 06:19:30;;;;;;;4.13;3.13;;;17.70;99.90;;;;;;5072766;28;20233;-87
2022/09/14 06:21:58;;;;;;;2.60;2.40;;;17.70;99.90;;;;;;5072846;28;20209;-87
2022/09/14 06:24:26;;;;;;;3.30;3.10;;;17.70;99.90;;;;;;5072928;28;20208;-87
2022/09/14 06:26:56;;;;;;;2.58;2.38;;;17.80;99.90;;;;;;5072970;28;20225;-87
2022/09/14 06:29:24;;;;;;;3.63;2.92;;;17.80;99.90;;;;;;5072307;28;20232;-86
2022/09/14 06:31:54;;;;;;;8.88;3.03;;;17.80;99.90;;;;;;5072981;28;20210;-87
2022/09/14 06:34:22;;;;;;;3.50;3.17;;;17.80;99.90;;;;;;5072775;28;20211;-87
2022/09/14 06:36:50;;;;;;;3.30;2.40;;;17.80;99.90;;;;;;5072863;28;20204;-86
2022/09/14 06:39:19;;;;;;;3.50;3.20;;;17.80;99.90;;;;;;5072632;28;20316;-87
2022/09/14 06:41:47;;;;;;;3.55;2.92;;;17.80;99.90;;;;;;5072237;28;20232;-87
2022/09/14 06:44:16;;;;;;;3.28;2.50;;;17.70;99.90;;;;;;5072662;28;20196;-87
2022/09/14 06:46:45;;;;;;;2.67;2.47;;;17.70;99.90;;;;;;5072751;28;20221;-87
2022/09/14 06:49:19;;;;;;;2.65;2.47;;;17.70;99.90;;;;;;5072482;28;20233;-86
2022/09/14 06:51:47;;;;;;;3.20;3.00;;;17.70;99.90;;;;;;5072669;28;20219;-87
2022/09/14 06:54:17;;;;;;;3.25;3.05;;;17.70;99.90;;;;;;5072666;28;20284;-88
2022/09/14 06:56:46;;;;;;;3.50;3.30;;;17.80;99.90;;;;;;5072700;28;20193;-86
2022/09/14 06:59:17;;;;;;;4.43;4.03;;;17.80;99.90;;;;;;5071951;28;20225;-87
2022/09/14 07:01:47;;;;;;;4.90;3.80;;;17.80;99.90;;;;;;5072800;28;20205;-86
2022/09/14 07:04:16;;;;;;;5.47;4.30;;;17.80;99.90;;;;;;5072603;28;20197;-88
2022/09/14 07:06:46;;;;;;;11.90;3.80;;;17.70;99.90;;;;;;5072250;28;20221;-86
2022/09/14 07:09:15;;;;;;;6.32;4.00;;;17.60;99.90;;;;;;5072323;28;20235;-87
2022/09/14 07:11:44;;;;;;;4.20;3.83;;;17.60;99.90;;;;;;5072476;28;20216;-87
2022/09/14 07:14:13;;;;;;;4.57;4.18;;;17.50;99.90;;;;;;5072447;28;20197;-87
2022/09/14 07:16:42;;;;;;;5.15;4.75;;;17.50;99.90;;;;;;5072603;28;20204;-87
2022/09/14 07:19:13;;;;;;;5.55;4.35;;;17.40;99.90;;;;;;5072212;28;20267;-87
2022/09/14 07:21:41;;;;;;;5.57;4.82;;;17.40;99.90;;;;;;5073329;28;20209;-87
2022/09/14 07:24:11;;;;;;;6.65;5.95;;;17.40;99.90;;;;;;5076208;28;20209;-87
2022/09/14 07:26:41;;;;;;;5.07;4.68;;;17.50;99.90;;;;;;5076594;28;20244;-88
2022/09/14 07:29:12;;;;;;;6.13;5.60;;;17.50;99.90;;;;;;5076472;28;20232;-87
2022/09/14 07:31:44;;;;;;;5.70;5.20;;;17.60;99.90;;;;;;5076192;28;20204;-87
2022/09/14 07:34:13;;;;;;;6.90;3.70;;;17.70;99.90;;;;;;5076096;28;20212;-87
2022/09/14 07:36:42;;;;;;;5.95;5.15;;;17.90;99.90;;;;;;5076031;28;20198;-88
2022/09/14 07:39:12;;;;;;;4.57;4.25;;;18.10;99.90;;;;;;5076121;28;20232;-87
2022/09/14 07:41:40;;;;;;;5.70;5.18;;;18.30;99.90;;;;;;5076339;28;20217;-86
2022/09/14 07:44:12;;;;;;;5.93;5.07;;;18.40;99.90;;;;;;5076140;28;20208;-88
2022/09/14 07:46:44;;;;;;;4.68;4.30;;;18.40;99.90;;;;;;5076048;28;20205;-86
2022/09/14 07:49:13;;;;;;;8.88;5.57;;;18.50;99.90;;;;;;5075495;28;20229;-87
2022/09/14 07:51:41;;;;;;;4.30;3.90;;;18.60;99.90;;;;;;5075861;28;20207;-87
2022/09/14 07:54:12;;;;;;;5.68;4.07;;;18.70;99.90;;;;;;5076200;28;20212;-87
2022/09/14 07:56:41;;;;;;;4.57;4.18;;;18.80;99.90;;;;;;5075807;28;20215;-86
2022/09/14 07:59:11;;;;;;;4.32;3.60;;;18.90;99.90;;;;;;5075201;28;20232;-86
2022/09/14 08:02:01;;;;;;;4.40;4.00;;;19.10;99.90;;;;;;5075542;28;20204;-86
2022/09/14 08:04:29;;;;;;;5.30;4.80;;;19.30;99.90;;;;;;5075665;28;20201;-86
2022/09/14 08:06:58;;;;;;;5.25;4.75;;;19.50;99.90;;;;;;5075450;28;20213;-86
2022/09/14 08:09:26;;;;;;;4.90;4.50;;;19.70;99.90;;;;;;5075562;28;20217;-86
2022/09/14 08:11:54;;;;;;;5.55;5.03;;;19.90;99.90;;;;;;5075545;28;20216;-86
2022/09/14 08:14:23;;;;;;;11.13;5.72;;;20.10;99.90;;;;;;5075593;28;20209;-86
2022/09/14 08:16:51;;;;;;;6.45;5.35;;;20.30;99.90;;;;;;5075464;28;20204;-86
2022/09/14 08:19:21;;;;;;;8.90;5.35;;;20.40;99.90;;;;;;5075340;28;20366;-87
2022/09/14 08:21:50;;;;;;;4.93;4.53;;;20.50;99.90;;;;;;5075383;28;20212;-85
2022/09/14 08:24:21;;;;;;;7.38;5.07;;;20.60;99.90;;;;;;5075361;28;20205;-86
2022/09/14 08:26:49;;;;;;;5.93;4.68;;;20.80;99.90;;;;;;5075101;28;20216;-85
2022/09/14 08:29:19;;;;;;;6.35;5.72;;;20.90;99.90;;;;;;5074696;28;20240;-86
2022/09/14 08:31:50;;;;;;;6.28;4.97;;;20.90;99.90;;;;;;5075026;28;20205;-86
2022/09/14 08:34:21;;;;;;;4.90;4.50;;;21.00;99.90;;;;;;5074115;28;20207;-86
2022/09/14 08:36:49;;;;;;;5.50;4.32;;;21.00;99.90;;;;;;5075228;28;20207;-86
2022/09/14 08:39:18;;;;;;;9.20;4.85;;;21.10;99.90;;;;;;5074645;28;20223;-86
2022/09/14 08:41:51;;;;;;;4.68;4.30;;;21.20;99.90;;;;;;5075067;28;20209;-86
2022/09/14 08:44:24;;;;;;;5.20;4.70;;;21.30;99.90;;;;;;5074911;28;20224;-85
2022/09/14 08:46:58;;;;;;;9.82;5.57;;;21.40;99.90;;;;;;5074589;28;20210;-86
2022/09/14 08:49:38;;;;;;;5.47;4.97;;;21.50;99.90;;;;;;5074596;28;20213;-86
2022/09/14 08:52:13;;;;;;;5.30;4.38;;;21.60;99.90;;;;;;5074655;28;20212;-86
2022/09/14 08:54:41;;;;;;;5.85;5.00;;;21.70;99.90;;;;;;5074805;28;20200;-86
2022/09/14 08:57:15;;;;;;;6.68;5.25;;;21.90;99.90;;;;;;5074525;28;20208;-86
2022/09/14 08:59:52;;;;;;;10.43;5.90;;;22.00;99.90;;;;;;5074038;28;20221;-86
2022/09/14 09:02:50;;;;;;;7.65;6.90;;;22.10;99.90;;;;;;5074716;28;20208;-88
2022/09/14 09:05:34;;;;;;;14.25;6.95;;;22.20;99.90;;;;;;5073945;28;20213;-86
2022/09/14 09:08:13;;;;;;;6.63;6.00;;;22.20;99.90;;;;;;5074140;28;20233;-86
2022/09/14 09:10:41;;;;;;;8.32;7.00;;;22.30;99.90;;;;;;5074353;28;20215;-86
2022/09/14 09:13:15;;;;;;;8.85;6.25;;;22.20;99.90;;;;;;5074343;28;20212;-86
2022/09/14 09:15:47;;;;;;;8.75;7.13;;;22.30;99.90;;;;;;5074375;28;20220;-86
2022/09/14 09:18:20;;;;;;;6.80;6.25;;;22.40;99.90;;;;;;5074389;28;20247;-86
2022/09/14 09:20:52;;;;;;;7.30;6.63;;;22.30;99.90;;;;;;5074224;28;20217;-86
2022/09/14 09:23:22;;;;;;;8.77;7.13;;;22.40;99.90;;;;;;5074062;28;20270;-86
2022/09/14 09:25:59;;;;;;;20.15;15.93;;;22.50;99.90;;;;;;5074010;28;20209;-86
2022/09/14 09:28:29;;;;;;;12.13;9.00;;;22.60;99.90;;;;;;5073576;28;20234;-86
2022/09/14 09:31:03;;;;;;;7.90;7.20;;;22.70;99.90;;;;;;5074426;28;20205;-86
2022/09/14 09:33:32;;;;;;;8.63;7.80;;;22.70;99.90;;;;;;5074054;28;20246;-86
2022/09/14 09:36:02;;;;;;;9.73;6.88;;;22.80;99.90;;;;;;5073686;28;20201;-86
2022/09/14 09:38:30;;;;;;;7.38;6.78;;;22.80;99.90;;;;;;5073688;28;20223;-86
2022/09/14 09:41:04;;;;;;;6.75;6.15;;;22.70;99.90;;;;;;5073890;28;20208;-86
2022/09/14 09:43:32;;;;;;;6.05;5.55;;;22.80;99.90;;;;;;5073670;28;20208;-86
2022/09/14 09:46:17;;;;;;;7.57;6.15;;;22.80;99.90;;;;;;5072886;28;20212;-86
2022/09/14 09:48:47;;;;;;;8.07;6.03;;;22.80;99.90;;;;;;5072792;28;20229;-86
2022/09/14 09:51:27;;;;;;;6.22;5.72;;;22.70;99.90;;;;;;5073714;28;20216;-86
2022/09/14 09:53:59;;;;;;;8.57;6.10;;;22.50;99.90;;;;;;5074025;28;20213;-87
2022/09/14 09:56:30;;;;;;;11.93;6.15;;;22.50;99.90;;;;;;5073485;28;20204;-87
2022/09/14 09:58:58;;;;;;;7.13;6.07;;;22.50;99.90;;;;;;5073261;28;20235;-87
2022/09/14 10:01:29;;;;;;;6.10;5.60;;;22.50;99.90;;;;;;5073400;28;20212;-86
2022/09/14 10:04:06;;;;;;;6.90;5.95;;;22.50;99.90;;;;;;5073192;28;20220;-87
2022/09/14 10:06:44;;;;;;;5.78;5.28;;;22.60;99.90;;;;;;5073289;28;20216;-86
2022/09/14 10:09:14;;;;;;;9.73;6.50;;;22.70;99.90;;;;;;5072854;28;20220;-87
2022/09/14 10:11:44;;;;;;;9.35;6.40;;;22.70;99.90;;;;;;5073387;28;20220;-87
2022/09/14 10:14:23;;;;;;;14.70;6.57;;;22.80;99.90;;;;;;5073454;28;20212;-87
2022/09/14 10:16:52;;;;;;;8.20;6.28;;;22.70;99.90;;;;;;5073117;28;20204;-87
2022/09/14 10:19:23;;;;;;;7.25;5.90;;;22.60;99.90;;;;;;5072779;28;20228;-87
2022/09/14 10:22:17;;;;;;;5.75;5.22;;;22.60;99.90;;;;;;5073094;28;20262;-87
2022/09/14 10:24:55;;;;;;;7.60;6.78;;;22.50;99.90;;;;;;5072943;28;20212;-87
2022/09/14 10:27:39;;;;;;;6.43;5.82;;;22.40;99.90;;;;;;5073184;28;20216;-86
2022/09/14 10:30:14;;;;;;;6.53;5.82;;;22.20;99.90;;;;;;5072273;28;20224;-87
2022/09/14 10:32:46;;;;;;;8.02;7.20;;;22.10;99.90;;;;;;5072849;28;20216;-87
2022/09/14 10:35:16;;;;;;;6.00;5.40;;;22.10;99.90;;;;;;5072786;28;20209;-87
2022/09/14 10:38:04;;;;;;;8.45;6.05;;;22.00;99.90;;;;;;5072812;28;20205;-86
2022/09/14 10:40:37;;;;;;;8.18;6.20;;;21.90;99.90;;;;;;5073131;28;20205;-87
2022/09/14 10:43:14;;;;;;;10.77;7.30;;;21.80;99.90;;;;;;5072869;28;20201;-87
2022/09/14 10:45:49;;;;;;;8.13;6.43;;;21.60;99.90;;;;;;5072741;28;20208;-87
2022/09/14 10:48:36;;;;;;;24.15;6.40;;;21.50;99.90;;;;;;5072250;28;20286;-87
2022/09/14 10:51:20;;;;;;;7.80;6.85;;;21.40;99.90;;;;;;5072773;28;20227;-86
2022/09/14 10:53:57;;;;;;;7.32;6.72;;;21.40;99.90;;;;;;5072620;28;20201;-86
2022/09/14 10:56:34;;;;;;;8.57;6.65;;;21.40;99.90;;;;;;5072402;28;20201;-86
2022/09/14 10:59:19;;;;;;;7.18;6.47;;;21.40;99.90;;;;;;5072356;28;20220;-86
2022/09/14 11:02:09;;;;;;;7.13;6.43;;;21.30;99.90;;;;;;5072233;28;20219;-87
2022/09/14 11:04:55;;;;;;;5.90;5.30;;;21.40;99.90;;;;;;5072091;28;20205;-87
2022/09/14 11:07:30;;;;;;;6.70;5.88;;;21.40;99.90;;;;;;5072415;28;20216;-87
2022/09/14 11:10:12;;;;;;;5.10;4.70;;;21.40;99.90;;;;;;5071693;28;20229;-87
2022/09/14 11:12:47;;;;;;;7.68;5.78;;;21.40;99.90;;;;;;5072214;28;20207;-87
2022/09/14 11:15:23;;;;;;;5.78;5.28;;;21.40;99.90;;;;;;5072460;28;20199;-87
2022/09/14 11:18:16;;;;;;;6.88;6.22;;;21.30;99.90;;;;;;5072322;28;20200;-86
2022/09/14 11:20:58;;;;;;;9.52;7.10;;;21.20;99.90;;;;;;5071294;28;20209;-87
2022/09/14 11:23:38;;;;;;;7.90;7.05;;;21.10;99.90;;;;;;5072514;28;20211;-87
2022/09/14 11:26:12;;;;;;;9.88;7.95;;;20.90;99.90;;;;;;5072207;28;20204;-87
2022/09/14 11:28:44;;;;;;;7.40;6.75;;;20.60;99.90;;;;;;5071992;28;20228;-88
2022/09/14 11:31:18;;;;;;;8.30;7.50;;;20.60;99.90;;;;;;5072136;28;20208;-88
2022/09/14 11:33:52;;;;;;;9.63;7.53;;;20.50;99.90;;;;;;5071823;28;20205;-88
2022/09/14 11:36:23;;;;;;;8.70;8.00;;;20.40;99.90;;;;;;5072630;28;20209;-88
2022/09/14 11:38:56;;;;;;;10.35;8.52;;;20.40;99.90;;;;;;5072117;28;20228;-88
2022/09/14 11:41:32;;;;;;;12.90;8.20;;;20.60;99.90;;;;;;5072230;28;20273;-87
2022/09/14 11:44:05;;;;;;;9.07;7.63;;;20.70;99.90;;;;;;5072114;28;20208;-88
2022/09/14 11:46:36;;;;;;;8.57;7.78;;;20.80;99.90;;;;;;5072052;28;20216;-88
2022/09/14 11:49:13;;;;;;;8.13;7.30;;;21.00;99.90;;;;;;5071504;28;20229;-87
2022/09/14 11:51:47;;;;;;;11.10;7.53;;;21.00;99.90;;;;;;5072194;28;20204;-88
2022/09/14 11:54:18;;;;;;;10.55;7.55;;;21.20;99.90;;;;;;5071744;28;20216;-87
2022/09/14 11:56:50;;;;;;;6.82;6.28;;;21.20;99.90;;;;;;5072078;28;20212;-88
2022/09/14 11:59:35;;;;;;;6.70;6.20;;;21.30;99.90;;;;;;5071332;28;20228;-87
2022/09/14 12:02:51;;;;;;;7.22;6.03;;;21.40;99.90;;;;;;5072087;28;20201;-87
2022/09/14 12:05:32;;;;;;;6.43;5.32;;;21.50;99.90;;;;;;5071995;28;20217;-88
2022/09/14 12:08:02;;;;;;;5.57;5.07;;;21.70;99.90;;;;;;5071772;28;20232;-88
2022/09/14 12:10:31;;;;;;;6.22;5.53;;;21.80;99.90;;;;;;5074780;28;20221;-87
2022/09/14 12:13:20;;;;;;;5.38;4.88;;;21.90;99.90;;;;;;5075504;28;20209;-88
2022/09/14 12:15:48;;;;;;;9.57;5.38;;;22.10;99.90;;;;;;5075668;28;20212;-88
2022/09/14 12:18:23;;;;;;;6.22;4.18;;;22.40;99.90;;;;;;5075191;28;20229;-88
2022/09/14 12:21:06;;;;;;;8.52;4.30;;;22.80;99.90;;;;;;5075126;28;20211;-88
2022/09/14 12:23:50;;;;;;;4.65;4.22;;;23.00;99.90;;;;;;5074961;28;20263;-88
2022/09/14 12:26:32;;;;;;;4.38;3.97;;;23.00;99.90;;;;;;5074898;28;20197;-88
2022/09/14 12:29:25;;;;;;;5.47;4.70;;;23.00;99.90;;;;;;5074639;28;20236;-87
2022/09/14 12:32:26;;;;;;;7.57;4.13;;;23.10;99.90;;;;;;5074658;28;20231;-88
2022/09/14 12:35:33;;;;;;;4.25;3.83;;;23.30;99.90;;;;;;5074858;28;20208;-88
2022/09/14 12:38:31;;;;;;;4.25;3.95;;;23.70;99.90;;;;;;5074680;28;20232;-88
2022/09/14 12:41:01;;;;;;;5.13;3.83;;;24.10;99.90;;;;;;5073526;28;20197;-88
2022/09/14 12:43:52;;;;;;;4.25;3.67;;;24.40;99.90;;;;;;5074645;28;20205;-88
2022/09/14 12:46:40;;;;;;;4.07;3.78;;;24.60;99.90;;;;;;5074859;28;20291;-88
2022/09/14 12:49:37;;;;;;;3.70;3.40;;;24.70;99.90;;;;;;5074182;28;20287;-88
2022/09/14 12:52:20;;;;;;;4.45;4.05;;;24.80;99.90;;;;;;5074980;28;20335;-88
2022/09/14 12:55:00;;;;;;;4.57;4.18;;;24.90;99.90;;;;;;5074239;28;20203;-88
2022/09/14 12:57:39;;;;;;;4.22;3.80;;;24.70;99.90;;;;;;5074818;28;20220;-88
2022/09/14 13:00:13;;;;;;;4.43;4.03;;;24.50;99.90;;;;;;5074244;28;20216;-88
2022/09/14 13:03:19;;;;;;;4.07;3.67;;;24.40;99.90;;;;;;5074392;28;20216;-88
2022/09/14 13:05:47;;;;;;;4.93;4.30;;;24.50;99.90;;;;;;5074570;28;20204;-88
2022/09/14 13:08:20;;;;;;;4.22;3.85;;;24.60;99.90;;;;;;5074352;28;20229;-88
2022/09/14 13:10:51;;;;;;;4.38;4.00;;;24.60;99.90;;;;;;5074263;28;20227;-88
2022/09/14 13:13:23;;;;;;;4.57;4.18;;;24.60;99.90;;;;;;5075098;28;20211;-87
2022/09/14 13:15:55;;;;;;;4.00;3.70;;;24.50;99.90;;;;;;5074620;28;20201;-88